Powered by GoogleTranslate

Accident Search Results

Description, Abstract, KeywordSICNAICSDate RangeOfficeInsp Nr
Keyword: "Electrician"AllAllAllAllAll

By Date

Results 81 - 100 of 1584
Result Page: 1 2 3 4 5 6 7 8 9 10 ...
  # Summary Nr Event Date Report ID Fat SIC Event Description
81 66409.015 07/22/2014 0728500 X Employee Falls From Bridge And Dies
82 60769.015 04/13/2014 0626300 X One Employee Killed, One Injured In Electrical Fire
83 201623907 04/07/2014 1054116   1731 Worker Sustains Concussion In Fall Through Ceiling
84 202558094 03/19/2014 0950631   1731 Two Workers Are Burned In Electric Arc Flash
85 200536464 03/05/2014 0751910 X 1731 Electrical Foreman Is Electrocuted
86 202720348 03/01/2014 0950633   1731 Electrician Apprentice Incurs Partial Amputation Of Finger
87 202557609 02/06/2014 0950631   1731 Electrician Supervisor Incurs Fractures In Fall From Ladder
88 202532537 12/12/2013 0950664   2911 Falling Power Panel Crushes Electrician'S Toes
89 200376648 12/11/2013 0454510   1731 Worker Is Burned In Arc Flash From Electric Panelboard
90 202479499 11/14/2013 0950644   1731 Electrical Worker Is Injured In 12 Ft Fall From A Ladder
91 202615183 11/05/2013 1054112 X 1522,1731 One Employee Is Electrocuted And Another Is Not Injured
92 202556627 09/30/2013 0950631 X 1623 Worker Is Electrocuted While Working In Electrical Vault
93 202082426 09/30/2013 0453730   1731 Electrician Injured In An Arc Flash
94 202556635 09/24/2013 0950631 X 1731 Employee Suffers Electrocution When Contact 480 Volt Current
95 202715603 09/13/2013 0950633 X 1731 Worker Contacts Energized Conductor And Is Electrocuted
96 202715538 09/06/2013 0950633 X 1731 Electrical Worker Is Killed While Pulling Wire
97 202615100 09/05/2013 1054111   1731,1541,4911 Worker Is Burned In Arc Blast When Bolt Contacts Live Elect
98 202658464 09/05/2013 0950643   1731 Electrical Worker Is Shocked While Installing Switch Gear
99 202458287 08/27/2013 0950647 X 2099 Employee Dies From Electrocution In Amp Test
100 202556825 08/23/2013 0950631   1731 Worker Sustains Multiple Fractures In Fall From Ladder

Thank You for Visiting Our Website

You are exiting the Department of Labor's Web server.

The Department of Labor does not endorse, takes no responsibility for, and exercises no control over the linked organization or its views, or contents, nor does it vouch for the accuracy or accessibility of the information contained on the destination server. The Department of Labor also cannot authorize the use of copyrighted materials contained in linked Web sites. Users must request such authorization from the sponsor of the linked Web site. Thank you for visiting our site. Please click the button below to continue.

Close